CheckWX is a tool to help pilots better visualize weather data.  It is not intended as a substitute for an official pre-flight weather briefing.

20:28:41 UTC

KSUZ METAR
Saline County Regional Airport
Benton, Arkansas, USA
Current

34 mins ago

KSUZ 161955Z AUTO VRB06KT 10SM CLR 17/09 A3001 RMK A01
Observed
Feb-16 @ 19:55 UTC
Wind
  • Variable at 6 KTS
Visibility
10 SM
Flight Rules
VFR
Cloud Levels
  • Clear skies
Temperature
17°C / 63°F
Dewpoint
C / 48°F
Humidity
59%
Altimeter
30.01" Hg
Pressure
1016.22 hPa
Previous

54 mins ago

KSUZ 161935Z AUTO 12008KT 8SM CLR 17/10 A3003 RMK A01
Observed
Feb-16 @ 19:35 UTC
Wind
  • 120° at 8 KTS
Visibility
8 SM
Flight Rules
VFR
Cloud Levels
  • Clear skies
Temperature
17°C / 63°F
Dewpoint
10°C / 50°F
Humidity
64%
Altimeter
30.03" Hg
Pressure
1016.92 hPa
Previous

1 hour ago

KSUZ 161915Z AUTO 11008KT 080V150 9SM CLR 17/10 A3004 RMK A01
Observed
Feb-16 @ 19:15 UTC
Wind
  • 110° at 8 KTS
Visibility
9 SM
Flight Rules
VFR
Cloud Levels
  • Clear skies
Temperature
17°C / 63°F
Dewpoint
10°C / 50°F
Humidity
64%
Altimeter
30.04" Hg
Pressure
1017.32 hPa